createdAt,value
2022-09-15T00:01:12.149Z,96335.96
2022-09-15T00:21:32.320Z,96287.40
2022-09-15T00:24:59.749Z,96282.23
2022-09-15T00:28:35.422Z,96278.41
2022-09-15T00:45:42.473Z,96263.77
2022-09-15T00:49:15.648Z,96263.36
2022-09-15T00:52:55.015Z,96262.17
2022-09-15T00:56:31.099Z,96254.62
2022-09-15T01:10:21.614Z,96240.13
2022-09-15T01:13:55.160Z,96226.36
2022-09-15T01:17:42.607Z,96219.59
2022-09-15T01:21:29.019Z,96212.65
2022-09-15T01:35:33.547Z,96209.05
2022-09-15T01:39:08.027Z,96205.20
2022-09-15T01:42:41.389Z,96199.08
2022-09-15T01:46:20.410Z,96194.27
2022-09-15T02:03:27.439Z,96190.30
2022-09-15T02:07:12.202Z,96186.78
2022-09-15T02:10:42.324Z,96186.96
2022-09-15T02:14:18.700Z,96184.48
2022-09-15T02:18:09.231Z,96181.45
2022-09-15T02:24:59.842Z,96187.61
2022-09-15T02:28:30.522Z,96182.56
2022-09-15T02:32:07.686Z,96184.13
2022-09-15T02:35:43.370Z,96174.98
2022-09-15T02:39:20.663Z,96167.30
2022-09-15T02:43:01.449Z,96161.35
2022-09-15T02:46:49.085Z,96159.73
2022-09-15T03:00:17.160Z,96148.46
2022-09-15T03:03:50.559Z,96140.75
2022-09-15T03:07:23.878Z,96141.27
2022-09-15T03:14:06.152Z,96136.14
2022-09-15T03:17:41.999Z,96138.00
2022-09-15T03:21:21.509Z,96138.10
2022-09-15T03:34:39.704Z,96119.10
2022-09-15T03:38:16.239Z,96116.36
2022-09-15T03:41:49.879Z,96111.70
2022-09-15T03:48:36.149Z,96109.89
2022-09-15T03:52:12.653Z,96110.71
2022-09-15T04:06:21.662Z,96104.34
2022-09-15T04:09:53.227Z,96103.92
2022-09-15T04:13:33.100Z,96107.32
2022-09-15T04:17:11.265Z,96104.68
2022-09-15T04:44:59.569Z,96097.02
2022-09-15T04:48:54.119Z,96109.73
2022-09-15T04:52:44.455Z,96107.48
2022-09-15T04:56:18.269Z,96103.84
2022-09-15T05:00:04.673Z,96102.25
2022-09-15T05:04:26.600Z,96105.70
2022-09-15T05:14:30.467Z,96113.35
2022-09-15T05:18:04.480Z,96122.84
2022-09-15T05:21:37.860Z,96125.96
2022-09-15T05:25:12.960Z,96131.72
2022-09-15T05:31:42.486Z,96137.17
2022-09-15T05:35:16.439Z,96144.23
2022-09-15T05:38:51.296Z,96141.80
2022-09-15T05:49:40.420Z,96148.02
2022-09-15T05:52:54.579Z,96142.15
2022-09-15T05:56:27.922Z,96141.67
2022-09-15T06:00:32.420Z,96149.17
2022-09-15T06:04:11.352Z,96161.46
2022-09-15T06:19:06.133Z,96173.92
2022-09-15T06:22:05.150Z,96178.60
2022-09-15T06:25:47.242Z,96167.02
2022-09-15T06:29:25.064Z,96166.80
2022-09-15T06:32:23.248Z,96170.83
2022-09-15T06:36:15.279Z,96176.88
2022-09-15T06:39:34.155Z,96179.41
2022-09-15T06:43:13.462Z,96180.55
2022-09-15T06:47:15.695Z,96181.61
2022-09-15T06:51:02.814Z,96188.41
2022-09-15T06:54:55.299Z,96193.11
2022-09-15T06:59:20.512Z,96198.52
2022-09-15T07:03:50.360Z,96206.92
2022-09-15T07:07:46.109Z,96214.03
2022-09-15T07:11:17.009Z,96213.17
2022-09-15T07:14:55.637Z,96217.48
2022-09-15T07:25:23.919Z,96255.20
2022-09-15T07:28:57.629Z,96264.33
2022-09-15T07:32:25.930Z,96274.33
2022-09-15T07:35:57.541Z,96283.51
2022-09-15T07:39:07.104Z,96280.27
2022-09-15T07:42:32.162Z,96288.46
2022-09-15T07:46:09.809Z,96297.35
2022-09-15T07:49:39.841Z,96297.88
2022-09-15T07:53:15.091Z,96302.83
2022-09-15T07:56:48.549Z,96313.31
2022-09-15T08:03:36.587Z,96331.48
2022-09-15T08:07:08.252Z,96330.75
2022-09-15T08:10:10.374Z,96332.64
2022-09-15T08:13:42.437Z,96341.22
2022-09-15T08:17:15.798Z,96347.88
2022-09-15T08:20:49.221Z,96353.41
2022-09-15T08:24:25.299Z,96358.38
2022-09-15T08:27:59.958Z,96363.25
2022-09-15T08:31:24.589Z,96373.89
2022-09-15T08:34:57.902Z,96372.77
2022-09-15T08:38:17.489Z,96367.39
2022-09-15T08:58:55.381Z,96391.46
2022-09-15T09:03:04.293Z,96394.32
2022-09-15T09:06:53.099Z,96401.96
2022-09-15T09:10:50.350Z,96402.25
2022-09-15T09:28:38.995Z,96413.91
2022-09-15T09:32:21.660Z,96416.30
2022-09-15T09:35:56.157Z,96421.34
2022-09-15T09:39:29.629Z,96428.13
2022-09-15T09:43:04.549Z,96419.37
2022-09-15T09:56:33.183Z,96426.23
2022-09-15T10:00:31.396Z,96431.13
2022-09-15T10:04:24.418Z,96433.91
2022-09-15T10:08:06.775Z,96432.89
2022-09-15T10:11:49.498Z,96436.66
2022-09-15T10:15:31.697Z,96425.41
2022-09-15T10:29:46.838Z,96438.88
2022-09-15T10:33:28.489Z,96444.02
2022-09-15T10:37:23.307Z,96444.45
2022-09-15T10:40:56.529Z,96447.20
2022-09-15T10:44:42.163Z,96448.27
2022-09-15T10:58:45.110Z,96442.14
2022-09-15T11:03:01.760Z,96439.90
2022-09-15T11:06:48.727Z,96442.12
2022-09-15T11:10:47.030Z,96443.08
2022-09-15T11:14:54.478Z,96447.86
2022-09-15T11:25:49.277Z,96438.00
2022-09-15T11:29:28.358Z,96427.77
2022-09-15T11:33:08.452Z,96425.61
2022-09-15T11:36:51.607Z,96424.22
2022-09-15T11:40:33.187Z,96423.20
2022-09-15T11:44:18.707Z,96415.61
2022-09-15T11:47:56.614Z,96407.33
2022-09-15T11:51:31.290Z,96403.23
2022-09-15T12:19:42.088Z,96399.54
2022-09-15T12:23:22.308Z,96392.52
2022-09-15T12:26:53.848Z,96395.59
2022-09-15T12:30:41.666Z,96392.08
2022-09-15T12:41:20.876Z,96373.23
2022-09-15T12:44:56.430Z,96376.63
2022-09-15T12:48:36.589Z,96375.77
2022-09-15T13:02:48.180Z,96369.20
2022-09-15T13:06:26.782Z,96365.36
2022-09-15T13:10:19.329Z,96364.08
2022-09-15T13:14:28.458Z,96367.67
2022-09-15T13:18:07.357Z,96368.73
2022-09-15T13:31:38.817Z,96375.45
2022-09-15T13:35:39.880Z,96368.70
2022-09-15T13:39:50.446Z,96365.44
2022-09-15T13:43:49.886Z,96364.32
2022-09-15T14:01:47.663Z,96356.30
2022-09-15T14:05:04.547Z,96348.13
2022-09-15T14:08:43.322Z,96344.07
2022-09-15T14:12:18.518Z,96341.68
2022-09-15T14:36:30.328Z,96334.85
2022-09-15T14:40:18.469Z,96336.17
2022-09-15T14:43:52.180Z,96346.36
2022-09-15T15:01:16.056Z,96339.10
2022-09-15T15:04:54.467Z,96343.64
2022-09-15T15:08:35.477Z,96353.70
2022-09-15T15:12:22.956Z,96346.92
2022-09-15T15:29:45.869Z,96324.62
2022-09-15T15:33:21.317Z,96329.80
2022-09-15T15:37:03.743Z,96326.17
2022-09-15T15:40:39.626Z,96322.30
2022-09-15T15:44:30.708Z,96314.11
2022-09-15T15:47:57.922Z,96314.79
2022-09-15T16:01:19.470Z,96328.65
2022-09-15T16:04:56.757Z,96330.98
2022-09-15T16:08:35.427Z,96340.30
2022-09-15T16:22:00.628Z,96351.85
2022-09-15T16:25:36.574Z,96346.71
2022-09-15T16:29:04.607Z,96344.54
2022-09-15T16:49:45.695Z,96364.20
2022-09-15T16:53:20.209Z,96368.95
2022-09-15T16:56:54.658Z,96371.35
2022-09-15T17:00:28.051Z,96374.66
2022-09-15T17:04:03.969Z,96376.19
2022-09-15T17:24:27.705Z,96366.42
2022-09-15T17:28:03.270Z,96367.43
2022-09-15T17:31:38.615Z,96368.04
2022-09-15T17:52:15.507Z,96371.61
2022-09-15T17:55:50.288Z,96377.34
2022-09-15T17:59:30.138Z,96384.98
2022-09-15T18:23:24.409Z,96398.56
2022-09-15T18:26:57.897Z,96402.48
2022-09-15T18:30:33.089Z,96398.17
2022-09-15T18:34:07.361Z,96396.89
2022-09-15T18:47:50.778Z,96407.15
2022-09-15T18:51:40.858Z,96398.48
2022-09-15T18:55:23.673Z,96397.66
2022-09-15T18:59:01.122Z,96399.23
2022-09-15T19:02:35.215Z,96403.39
2022-09-15T19:19:43.607Z,96366.63
2022-09-15T19:23:17.926Z,96379.60
2022-09-15T19:26:55.345Z,96387.61
2022-09-15T19:40:21.396Z,96397.87
2022-09-15T19:43:58.706Z,96400.52
2022-09-15T19:47:32.787Z,96410.03
2022-09-15T19:57:50.786Z,96416.95
2022-09-15T20:01:21.766Z,96421.27
2022-09-15T20:05:05.291Z,96433.00
2022-09-15T20:18:51.648Z,96437.14
2022-09-15T20:22:25.497Z,96441.28
2022-09-15T20:26:04.895Z,96444.38
2022-09-15T20:29:38.367Z,96447.71
2022-09-15T20:33:11.956Z,96435.65
2022-09-15T20:39:43.900Z,96445.02
2022-09-15T20:43:17.197Z,96445.20
2022-09-15T20:46:50.976Z,96451.40
2022-09-15T21:03:46.478Z,96457.93
2022-09-15T21:07:19.827Z,96459.71
2022-09-15T21:10:54.767Z,96469.40
2022-09-15T21:21:08.812Z,96474.30
2022-09-15T21:24:39.521Z,96473.02
2022-09-15T21:28:11.213Z,96483.59
2022-09-15T21:38:18.317Z,96497.22
2022-09-15T21:41:51.987Z,96499.43
2022-09-15T21:45:26.383Z,96505.86
2022-09-15T21:58:52.913Z,96520.13
2022-09-15T22:02:31.889Z,96525.23
2022-09-15T22:06:06.406Z,96525.17
2022-09-15T22:09:40.657Z,96524.55
2022-09-15T22:13:15.728Z,96519.17
2022-09-15T22:30:18.077Z,96535.31
2022-09-15T22:33:52.569Z,96542.52
2022-09-15T22:37:16.078Z,96547.30
2022-09-15T22:40:50.517Z,96550.20
2022-09-15T22:44:25.328Z,96554.65
2022-09-15T22:57:50.707Z,96569.20
2022-09-15T23:01:28.648Z,96571.77
2022-09-15T23:05:02.587Z,96571.64
2022-09-15T23:26:30.467Z,96565.83
2022-09-15T23:30:03.917Z,96566.71
2022-09-15T23:33:37.728Z,96571.48
2022-09-15T23:50:23.461Z,96580.52
2022-09-15T23:53:57.907Z,96581.84
2022-09-15T23:57:55.965Z,96581.65
